Terminal Aerodrome Forecast
Issued by NWS Blacksburg, VA

Current Version | Previous Version | Text Only | Print | Product List | Glossary Off
Versions: 1 2 3 4 5 6 7 8 9 10 11 12 13 14 15 16 17 18 19 20 21 22 23 24 25

000
FTUS41 KRNK 221426 AAA
TAFBLF
TAF AMD
KBLF 221426Z 2214/2312 32007G17KT P6SM SCT021
      TEMPO 2215/2217 BKN021
     FM221700 32010G20KT P6SM BKN035
     FM230300 31006KT P6SM BKN025=

USA.gov is the U.S. government's official web portal to all federal, state and local government web resources and services.